createdAt,value
2019-03-01T00:01:01.971Z,31.80
2019-03-01T00:03:30.746Z,34.70
2019-03-01T00:06:10.003Z,33.20
2019-03-01T00:08:46.361Z,51.13
2019-03-01T00:11:24.219Z,39.90
2019-03-01T00:14:10.856Z,49.40
2019-03-01T00:16:57.672Z,36.37
2019-03-01T00:20:03.766Z,34.57
2019-03-01T00:22:43.430Z,35.17
2019-03-01T00:25:26.175Z,39.07
2019-03-01T00:28:26.256Z,39.93
2019-03-01T00:31:28.342Z,39.70
2019-03-01T00:34:04.619Z,39.73
2019-03-01T00:37:01.522Z,42.33
2019-03-01T00:39:49.391Z,40.57
2019-03-01T00:42:37.283Z,41.37
2019-03-01T00:45:06.321Z,43.77
2019-03-01T00:47:35.151Z,48.47
2019-03-01T00:50:04.128Z,46.83
2019-03-01T00:52:33.229Z,48.70
2019-03-01T00:55:02.060Z,53.13
2019-03-01T00:57:30.883Z,56.13
2019-03-01T00:59:59.678Z,61.47
2019-03-01T01:02:28.487Z,65.50
2019-03-01T01:04:57.282Z,70.27
2019-03-01T01:07:26.038Z,74.17
2019-03-01T01:09:54.812Z,78.53
2019-03-01T01:12:23.567Z,79.97
2019-03-01T01:14:52.627Z,81.83
2019-03-01T01:17:21.371Z,81.53
2019-03-01T01:19:50.103Z,81.80
2019-03-01T01:22:18.878Z,85.17
2019-03-01T01:24:47.675Z,86.83
2019-03-01T01:27:16.586Z,84.53
2019-03-01T01:29:45.435Z,89.10
2019-03-01T01:32:14.266Z,79.47
2019-03-01T01:34:43.773Z,74.60
2019-03-01T01:37:14.211Z,68.97
2019-03-01T01:39:43.021Z,65.30
2019-03-01T01:42:12.884Z,61.67
2019-03-01T01:44:41.654Z,60.07
2019-03-01T01:47:10.653Z,62.10
2019-03-01T01:49:40.568Z,62.17
2019-03-01T01:52:09.390Z,63.07
2019-03-01T01:54:38.355Z,65.70
2019-03-01T01:57:07.120Z,66.90
2019-03-01T01:59:36.133Z,68.63
2019-03-01T02:02:04.868Z,69.43
2019-03-01T02:04:33.573Z,71.90
2019-03-01T02:07:02.524Z,71.27
2019-03-01T02:09:31.275Z,68.30
2019-03-01T02:12:00.058Z,64.77
2019-03-01T02:14:28.948Z,68.87
2019-03-01T02:16:58.565Z,63.23
2019-03-01T02:19:27.947Z,63.63
2019-03-01T02:21:57.805Z,58.90
2019-03-01T02:24:28.485Z,61.43
2019-03-01T02:27:29.913Z,57.73
2019-03-01T02:30:00.719Z,59.30
2019-03-01T02:32:37.101Z,56.27
2019-03-01T02:35:09.346Z,57.03
2019-03-01T02:37:39.588Z,57.87
2019-03-01T02:40:08.747Z,49.93
2019-03-01T02:42:37.495Z,53.83
2019-03-01T02:45:06.906Z,51.63
2019-03-01T02:47:36.007Z,54.50
2019-03-01T02:50:05.515Z,45.83
2019-03-01T02:52:34.357Z,48.33
2019-03-01T02:55:03.548Z,53.83
2019-03-01T02:57:32.395Z,52.47
2019-03-01T03:00:01.266Z,54.63
2019-03-01T03:02:30.035Z,53.67
2019-03-01T03:04:59.036Z,53.30
2019-03-01T03:07:33.271Z,50.53
2019-03-01T03:10:02.088Z,49.93
2019-03-01T03:12:30.911Z,50.10
2019-03-01T03:14:59.796Z,47.57
2019-03-01T03:17:29.702Z,48.53
2019-03-01T03:19:58.447Z,49.03
2019-03-01T03:22:27.821Z,46.60
2019-03-01T03:24:56.628Z,45.83
2019-03-01T03:27:25.503Z,44.03
2019-03-01T03:29:54.356Z,42.03
2019-03-01T03:32:23.238Z,39.00
2019-03-01T03:34:52.356Z,38.83
2019-03-01T03:37:21.809Z,38.77
2019-03-01T03:39:50.650Z,37.33
2019-03-01T03:42:20.699Z,37.03
2019-03-01T03:44:49.602Z,36.13
2019-03-01T03:47:18.569Z,35.00
2019-03-01T03:49:47.443Z,33.00
2019-03-01T03:52:16.353Z,33.80
2019-03-01T03:54:45.240Z,35.83
2019-03-01T03:57:14.218Z,34.90
2019-03-01T03:59:43.017Z,33.70
2019-03-01T04:02:11.747Z,35.07
2019-03-01T04:04:40.672Z,34.73
2019-03-01T04:07:10.646Z,32.17
2019-03-01T04:09:39.420Z,32.03
2019-03-01T04:12:08.294Z,31.83
2019-03-01T04:14:38.890Z,32.07
2019-03-01T04:17:08.396Z,32.90
2019-03-01T04:19:37.838Z,32.67
2019-03-01T04:22:07.304Z,32.73
2019-03-01T04:24:36.896Z,32.83
2019-03-01T04:27:08.052Z,35.07
2019-03-01T04:29:37.063Z,33.10
2019-03-01T04:32:06.043Z,33.00
2019-03-01T04:34:35.114Z,34.47
2019-03-01T04:37:04.977Z,32.67
2019-03-01T04:39:35.059Z,33.40
2019-03-01T04:42:04.893Z,34.17
2019-03-01T04:44:33.675Z,35.30
2019-03-01T04:47:02.608Z,33.27
2019-03-01T04:49:31.533Z,31.87
2019-03-01T04:52:00.387Z,33.90
2019-03-01T04:54:29.150Z,33.23
2019-03-01T04:56:57.910Z,31.60
2019-03-01T04:59:26.899Z,33.30
2019-03-01T05:01:55.713Z,31.07
2019-03-01T05:04:24.660Z,30.93
2019-03-01T05:06:54.862Z,27.90
2019-03-01T05:09:23.636Z,28.87
2019-03-01T05:11:52.467Z,26.73
2019-03-01T05:14:21.280Z,27.73
2019-03-01T05:16:50.044Z,28.77
2019-03-01T05:19:18.842Z,27.60
2019-03-01T05:21:48.775Z,28.47
2019-03-01T05:24:17.586Z,29.00
2019-03-01T05:26:46.521Z,28.17
2019-03-01T05:29:16.074Z,27.83
2019-03-01T05:31:44.884Z,28.73
2019-03-01T05:34:13.630Z,28.43
2019-03-01T05:36:42.455Z,32.00
2019-03-01T05:39:11.285Z,28.77
2019-03-01T05:41:40.353Z,26.87
2019-03-01T05:44:09.330Z,27.07
2019-03-01T05:46:38.086Z,28.67
2019-03-01T05:49:07.050Z,28.30
2019-03-01T05:51:36.027Z,27.80
2019-03-01T05:54:04.848Z,28.67
2019-03-01T05:56:33.699Z,28.53
2019-03-01T05:59:11.190Z,28.80
2019-03-01T06:01:42.700Z,27.87
2019-03-01T06:04:19.655Z,26.97
2019-03-01T06:07:06.422Z,28.10
2019-03-01T06:09:42.412Z,29.87
2019-03-01T06:12:19.736Z,29.00
2019-03-01T06:15:13.786Z,33.70
2019-03-01T06:18:04.760Z,35.17
2019-03-01T06:20:52.667Z,35.50
2019-03-01T06:23:29.037Z,35.30
2019-03-01T06:26:15.268Z,32.17
2019-03-01T06:29:18.483Z,25.57
2019-03-01T06:31:55.126Z,25.10
2019-03-01T06:34:43.027Z,23.63
2019-03-01T06:37:49.810Z,23.50
2019-03-01T06:44:29.505Z,22.73
2019-03-01T06:47:09.130Z,23.10
2019-03-01T06:49:56.783Z,23.37
2019-03-01T06:52:26.725Z,23.00
2019-03-01T06:54:56.610Z,23.60
2019-03-01T06:57:26.598Z,24.70
2019-03-01T06:59:55.354Z,24.53
2019-03-01T07:02:33.734Z,24.37
2019-03-01T07:05:03.676Z,23.40
2019-03-01T07:07:32.451Z,24.53
2019-03-01T07:10:01.325Z,22.63
2019-03-01T07:12:30.135Z,24.37
2019-03-01T07:14:58.999Z,24.77
2019-03-01T07:17:27.853Z,19.67
2019-03-01T07:19:57.284Z,23.87
2019-03-01T07:22:26.914Z,22.77
2019-03-01T07:24:56.576Z,22.90
2019-03-01T07:27:26.066Z,23.27
2019-03-01T07:29:55.532Z,23.37
2019-03-01T07:32:25.309Z,23.43
2019-03-01T07:34:56.087Z,23.80
2019-03-01T07:37:26.584Z,24.73
2019-03-01T07:39:56.117Z,18.63
2019-03-01T07:42:25.674Z,23.33
2019-03-01T07:44:55.434Z,24.20
2019-03-01T07:47:24.923Z,23.37
2019-03-01T07:49:55.399Z,15.07
2019-03-01T07:52:24.922Z,21.23
2019-03-01T07:54:54.698Z,24.70
2019-03-01T07:57:24.257Z,23.53
2019-03-01T08:00:14.259Z,22.83
2019-03-01T08:03:03.442Z,23.03
2019-03-01T08:05:39.317Z,22.70
2019-03-01T08:08:07.618Z,23.33
2019-03-01T08:10:37.523Z,23.57
2019-03-01T08:13:06.981Z,22.40
2019-03-01T08:15:36.406Z,22.03
2019-03-01T08:18:08.245Z,21.97
2019-03-01T08:20:36.984Z,21.57
2019-03-01T08:23:06.341Z,24.37
2019-03-01T08:25:36.870Z,21.07
2019-03-01T08:28:06.313Z,21.43
2019-03-01T08:30:38.494Z,22.30
2019-03-01T08:33:10.145Z,22.13
2019-03-01T08:35:39.550Z,22.40
2019-03-01T08:38:08.484Z,19.87
2019-03-01T08:40:37.333Z,21.87
2019-03-01T08:43:11.784Z,22.00
2019-03-01T08:45:36.888Z,22.30
2019-03-01T08:48:05.752Z,19.53
2019-03-01T08:50:34.577Z,15.90
2019-03-01T08:53:04.441Z,19.80
2019-03-01T08:55:35.631Z,17.43
2019-03-01T08:58:06.863Z,15.73
2019-03-01T09:00:34.562Z,16.37
2019-03-01T09:03:06.104Z,15.37
2019-03-01T09:05:34.992Z,14.93
2019-03-01T09:08:03.741Z,12.67
2019-03-01T09:10:52.143Z,14.23
2019-03-01T09:13:21.620Z,14.30
2019-03-01T09:15:51.073Z,14.33
2019-03-01T09:18:20.518Z,14.30
2019-03-01T09:20:51.085Z,13.10
2019-03-01T09:23:26.433Z,14.60
2019-03-01T09:25:52.348Z,13.47
2019-03-01T09:28:21.175Z,13.37
2019-03-01T09:30:49.973Z,12.97
2019-03-01T09:33:22.936Z,12.23
2019-03-01T09:36:02.197Z,13.00
2019-03-01T09:38:32.798Z,13.73
2019-03-01T09:41:04.502Z,14.47
2019-03-01T09:43:32.944Z,13.50
2019-03-01T09:46:02.061Z,13.13
2019-03-01T09:48:31.900Z,12.67
2019-03-01T09:51:00.662Z,15.40
2019-03-01T09:53:30.687Z,13.97
2019-03-01T09:56:00.278Z,14.30
2019-03-01T09:58:29.100Z,16.23
2019-03-01T10:01:00.074Z,15.23
2019-03-01T10:03:30.778Z,14.77
2019-03-01T10:05:59.596Z,16.43
2019-03-01T10:08:28.341Z,14.27
2019-03-01T10:11:00.566Z,13.90
2019-03-01T10:13:31.358Z,15.27
2019-03-01T10:16:00.851Z,16.13
2019-03-01T10:18:30.563Z,15.80
2019-03-01T10:21:00.064Z,16.03
2019-03-01T10:23:29.480Z,15.77
2019-03-01T10:25:58.978Z,13.40
2019-03-01T10:28:29.626Z,15.63
2019-03-01T10:30:59.046Z,15.93
2019-03-01T10:33:28.545Z,16.13
2019-03-01T10:35:59.488Z,16.13
2019-03-01T10:38:28.978Z,16.80
2019-03-01T10:40:58.422Z,16.57
2019-03-01T10:43:28.082Z,16.13
2019-03-01T10:45:58.754Z,17.33
2019-03-01T10:48:28.842Z,16.13
2019-03-01T10:50:59.991Z,17.80
2019-03-01T10:53:29.387Z,15.67
2019-03-01T10:56:00.053Z,15.73
2019-03-01T10:58:30.023Z,17.23
2019-03-01T11:00:59.467Z,18.60
2019-03-01T11:03:28.874Z,14.53
2019-03-01T11:05:58.362Z,17.63
2019-03-01T11:08:27.839Z,17.23
2019-03-01T11:10:59.014Z,15.10
2019-03-01T11:13:28.534Z,15.63
2019-03-01T11:15:58.095Z,13.07
2019-03-01T11:18:27.490Z,13.93
2019-03-01T11:20:57.433Z,12.23
2019-03-01T11:23:26.898Z,13.40
2019-03-01T11:25:56.442Z,10.20
2019-03-01T11:28:44.909Z,12.80
2019-03-01T11:31:14.546Z,13.10
2019-03-01T11:33:44.062Z,12.07
2019-03-01T11:36:13.776Z,9.00
2019-03-01T11:38:43.583Z,13.30
2019-03-01T11:41:13.022Z,12.63
2019-03-01T11:43:42.412Z,13.07
2019-03-01T11:46:11.865Z,11.97
2019-03-01T11:48:41.493Z,11.33
2019-03-01T11:51:11.119Z,12.70
2019-03-01T11:53:40.500Z,11.07
2019-03-01T11:56:09.900Z,10.83
2019-03-01T11:58:39.623Z,12.40
2019-03-01T12:01:16.882Z,11.17
2019-03-01T12:03:40.217Z,11.80
2019-03-01T12:06:09.636Z,11.90
2019-03-01T12:08:38.990Z,13.67
2019-03-01T12:11:08.547Z,11.47
2019-03-01T12:13:38.308Z,11.30
2019-03-01T12:16:07.872Z,12.13
2019-03-01T12:18:37.293Z,12.03
2019-03-01T12:21:07.102Z,11.93
2019-03-01T12:23:36.531Z,12.57
2019-03-01T12:26:06.011Z,12.60
2019-03-01T12:28:35.493Z,12.90
2019-03-01T12:31:05.029Z,13.67
2019-03-01T12:33:34.467Z,14.83
2019-03-01T12:36:04.004Z,13.77
2019-03-01T12:38:33.406Z,13.50
2019-03-01T12:41:02.821Z,13.97
2019-03-01T12:43:32.527Z,14.83
2019-03-01T12:46:01.926Z,14.23
2019-03-01T12:48:31.347Z,14.23
2019-03-01T12:51:01.065Z,15.70
2019-03-01T12:53:30.485Z,18.67
2019-03-01T12:55:59.940Z,15.67
2019-03-01T12:58:29.388Z,16.80
2019-03-01T13:00:58.766Z,15.77
2019-03-01T13:03:29.989Z,15.37
2019-03-01T13:06:00.630Z,16.33
2019-03-01T13:08:30.127Z,19.07
2019-03-01T13:10:59.610Z,20.20
2019-03-01T13:13:29.134Z,22.13
2019-03-01T13:15:58.543Z,21.93
2019-03-01T13:18:28.002Z,19.77
2019-03-01T13:20:57.387Z,17.07
2019-03-01T13:23:26.794Z,17.93
2019-03-01T13:25:56.438Z,18.13
2019-03-01T13:28:26.202Z,16.73
2019-03-01T13:30:55.920Z,15.60
2019-03-01T13:33:25.286Z,25.97
2019-03-01T13:35:54.834Z,16.00
2019-03-01T13:38:24.297Z,15.77
2019-03-01T13:40:54.274Z,16.53
2019-03-01T13:43:28.296Z,18.10
2019-03-01T13:45:58.024Z,19.23
2019-03-01T13:48:28.858Z,26.00
2019-03-01T13:50:58.371Z,19.97
2019-03-01T13:53:30.214Z,20.83
2019-03-01T13:56:01.153Z,20.83
2019-03-01T13:58:31.016Z,21.20
2019-03-01T14:01:00.471Z,19.07
2019-03-01T14:03:29.947Z,20.27
2019-03-01T14:05:59.555Z,17.87
2019-03-01T14:08:30.482Z,18.73
2019-03-01T14:11:01.102Z,17.53
2019-03-01T14:13:32.343Z,16.73
2019-03-01T14:16:04.646Z,20.33
2019-03-01T14:18:36.779Z,16.70
2019-03-01T14:21:06.133Z,16.90
2019-03-01T14:23:36.936Z,17.03
2019-03-01T14:26:06.493Z,16.97
2019-03-01T14:28:40.949Z,18.27
2019-03-01T14:31:09.774Z,18.00
2019-03-01T14:33:40.430Z,17.13
2019-03-01T14:36:12.609Z,16.27
2019-03-01T14:38:42.326Z,19.37
2019-03-01T14:41:12.990Z,16.97
2019-03-01T14:43:42.646Z,15.20
2019-03-01T14:46:13.464Z,16.67
2019-03-01T14:48:46.115Z,16.47
2019-03-01T14:51:15.228Z,17.07
2019-03-01T14:53:45.161Z,15.77
2019-03-01T14:56:21.605Z,15.40
2019-03-01T14:58:58.912Z,15.93
2019-03-01T15:01:36.675Z,16.83
2019-03-01T15:04:06.173Z,16.23
2019-03-01T15:06:37.309Z,16.43
2019-03-01T15:09:07.840Z,15.00
2019-03-01T15:11:41.054Z,17.17
2019-03-01T15:14:30.565Z,17.77
2019-03-01T15:17:00.290Z,17.30
2019-03-01T15:19:29.896Z,16.43
2019-03-01T15:21:59.307Z,16.20
2019-03-01T15:24:49.326Z,15.57
2019-03-01T15:27:20.352Z,14.77
2019-03-01T15:29:49.716Z,15.47
2019-03-01T15:32:19.251Z,15.23
2019-03-01T15:34:48.751Z,15.40
2019-03-01T15:37:18.128Z,15.90
2019-03-01T15:39:47.803Z,16.47
2019-03-01T15:42:20.350Z,17.27
2019-03-01T15:44:49.646Z,17.60
2019-03-01T15:47:20.079Z,17.83
2019-03-01T15:49:51.384Z,19.47
2019-03-01T15:52:22.491Z,19.17
2019-03-01T15:54:52.594Z,20.80
2019-03-01T15:57:22.229Z,19.73
2019-03-01T15:59:51.761Z,20.23
2019-03-01T16:02:21.188Z,19.83
2019-03-01T16:04:50.582Z,20.43
2019-03-01T16:07:20.047Z,20.50
2019-03-01T16:09:49.679Z,18.83
2019-03-01T16:12:19.312Z,19.13
2019-03-01T16:14:49.004Z,19.93
2019-03-01T16:17:18.432Z,18.87
2019-03-01T16:19:50.452Z,19.80
2019-03-01T16:22:19.687Z,20.97
2019-03-01T16:24:49.118Z,21.30
2019-03-01T16:27:18.680Z,18.63
2019-03-01T16:29:48.112Z,20.43
2019-03-01T16:32:17.958Z,18.80
2019-03-01T16:34:49.065Z,19.20
2019-03-01T16:37:18.783Z,20.17
2019-03-01T16:39:49.435Z,20.80
2019-03-01T16:42:18.968Z,19.53
2019-03-01T16:44:48.450Z,19.33
2019-03-01T16:47:17.996Z,20.83
2019-03-01T16:49:47.601Z,20.40
2019-03-01T16:52:17.069Z,21.50
2019-03-01T16:54:47.545Z,20.57
2019-03-01T16:57:18.683Z,19.93
2019-03-01T16:59:49.407Z,20.37
2019-03-01T17:02:20.112Z,20.60
2019-03-01T17:04:49.900Z,20.80
2019-03-01T17:07:21.441Z,20.97
2019-03-01T17:09:51.067Z,21.67
2019-03-01T17:12:22.953Z,20.00
2019-03-01T17:14:52.728Z,22.20
2019-03-01T17:17:22.398Z,21.83
2019-03-01T17:19:52.330Z,20.57
2019-03-01T17:22:23.193Z,22.00
2019-03-01T17:24:53.691Z,22.00
2019-03-01T17:27:23.120Z,22.30
2019-03-01T17:29:54.019Z,22.20
2019-03-01T17:32:23.982Z,21.10
2019-03-01T17:34:54.175Z,21.57
2019-03-01T17:37:25.858Z,20.87
2019-03-01T17:39:56.606Z,21.67
2019-03-01T17:42:26.847Z,21.60
2019-03-01T17:44:56.662Z,21.17
2019-03-01T17:47:26.685Z,23.33
2019-03-01T17:49:56.882Z,21.93
2019-03-01T17:52:30.628Z,22.90
2019-03-01T17:55:01.525Z,23.33
2019-03-01T17:57:33.108Z,23.77
2019-03-01T18:00:03.796Z,24.37
2019-03-01T18:02:33.999Z,23.47
2019-03-01T18:05:04.576Z,24.77
2019-03-01T18:07:34.925Z,23.20
2019-03-01T18:10:10.470Z,24.17
2019-03-01T18:12:40.775Z,24.63
2019-03-01T18:15:12.504Z,25.93
2019-03-01T18:17:43.747Z,25.87
2019-03-01T18:20:14.320Z,27.73
2019-03-01T18:22:44.586Z,28.63
2019-03-01T18:25:15.025Z,28.03
2019-03-01T18:27:45.536Z,30.73
2019-03-01T18:30:19.738Z,31.47
2019-03-01T18:32:49.728Z,30.90
2019-03-01T18:35:20.055Z,32.20
2019-03-01T18:37:51.389Z,31.03
2019-03-01T18:40:22.762Z,32.43
2019-03-01T18:42:53.391Z,30.53
2019-03-01T18:45:23.654Z,30.10
2019-03-01T18:47:54.099Z,31.17
2019-03-01T18:50:27.724Z,31.87
2019-03-01T18:52:58.899Z,31.83
2019-03-01T18:55:29.246Z,30.43
2019-03-01T18:57:59.672Z,30.03
2019-03-01T19:00:35.639Z,34.73
2019-03-01T19:03:05.468Z,30.23
2019-03-01T19:05:36.770Z,31.23
2019-03-01T19:08:08.256Z,30.63
2019-03-01T19:10:38.675Z,30.93
2019-03-01T19:13:09.098Z,29.87
2019-03-01T19:15:39.677Z,30.70
2019-03-01T19:18:10.088Z,32.97
2019-03-01T19:20:41.436Z,32.07
2019-03-01T19:23:14.196Z,35.80
2019-03-01T19:25:44.681Z,35.50
2019-03-01T19:28:15.412Z,38.57
2019-03-01T19:30:49.341Z,36.53
2019-03-01T19:33:19.293Z,36.70
2019-03-01T19:35:49.979Z,37.33
2019-03-01T19:38:21.782Z,37.07
2019-03-01T19:40:55.124Z,35.50
2019-03-01T19:43:25.728Z,34.83
2019-03-01T19:45:56.244Z,33.57
2019-03-01T19:48:26.516Z,34.40
2019-03-01T19:50:58.472Z,33.80
2019-03-01T19:53:30.215Z,34.63
2019-03-01T19:56:00.649Z,33.93
2019-03-01T19:58:30.990Z,31.90
2019-03-01T20:01:01.972Z,34.63
2019-03-01T20:03:32.352Z,34.57
2019-03-01T20:06:04.473Z,33.70
2019-03-01T20:08:35.378Z,36.40
2019-03-01T20:11:05.817Z,35.30
2019-03-01T20:13:56.177Z,36.77
2019-03-01T20:16:26.734Z,36.87
2019-03-01T20:18:56.940Z,38.27
2019-03-01T20:21:27.240Z,38.37
2019-03-01T20:24:17.756Z,36.43
2019-03-01T20:26:48.222Z,36.80
2019-03-01T20:29:18.596Z,36.60
2019-03-01T20:31:48.869Z,36.53
2019-03-01T20:34:19.198Z,36.83
2019-03-01T20:36:52.876Z,37.07
2019-03-01T20:39:21.623Z,38.00
2019-03-01T20:41:52.149Z,38.27
2019-03-01T20:44:22.678Z,38.40
2019-03-01T20:46:53.953Z,38.13
2019-03-01T20:49:24.426Z,38.73
2019-03-01T20:51:54.566Z,37.73
2019-03-01T20:54:25.821Z,37.07
2019-03-01T20:56:57.493Z,39.67
2019-03-01T20:59:27.699Z,42.40
2019-03-01T21:01:58.013Z,42.73
2019-03-01T21:04:28.378Z,42.83
2019-03-01T21:06:58.512Z,40.40
2019-03-01T21:09:28.695Z,41.13
2019-03-01T21:12:01.111Z,40.60
2019-03-01T21:14:31.458Z,43.10
2019-03-01T21:17:01.633Z,43.53
2019-03-01T21:19:31.520Z,45.80
2019-03-01T21:22:04.623Z,44.63
2019-03-01T21:24:33.451Z,45.90
2019-03-01T21:27:04.374Z,45.60
2019-03-01T21:29:34.192Z,46.07
2019-03-01T21:32:04.582Z,44.93
2019-03-01T21:34:34.909Z,46.03
2019-03-01T21:37:06.979Z,46.93
2019-03-01T21:39:36.649Z,47.67
2019-03-01T21:42:06.123Z,49.77
2019-03-01T21:44:35.845Z,47.57
2019-03-01T21:47:06.953Z,50.43
2019-03-01T21:49:38.020Z,52.13
2019-03-01T21:52:08.264Z,51.70
2019-03-01T21:54:37.714Z,48.23
2019-03-01T21:57:09.069Z,50.50
2019-03-01T21:59:38.567Z,48.97
2019-03-01T22:02:08.070Z,48.73
2019-03-01T22:04:38.345Z,47.63
2019-03-01T22:07:07.973Z,46.87
2019-03-01T22:09:37.367Z,45.27
2019-03-01T22:12:07.016Z,45.50
2019-03-01T22:14:38.052Z,48.63
2019-03-01T22:17:10.377Z,50.17
2019-03-01T22:19:58.856Z,53.00
2019-03-01T22:22:28.486Z,51.73
2019-03-01T22:24:58.622Z,50.93
2019-03-01T22:27:30.646Z,51.13
2019-03-01T22:30:01.318Z,51.23
2019-03-01T22:32:30.880Z,53.30
2019-03-01T22:35:03.168Z,53.97
2019-03-01T22:37:31.528Z,54.97
2019-03-01T22:40:00.910Z,54.13
2019-03-01T22:42:30.349Z,55.40
2019-03-01T22:44:59.766Z,52.60
2019-03-01T22:47:32.322Z,53.93
2019-03-01T22:50:00.365Z,52.40
2019-03-01T22:52:31.551Z,51.67
2019-03-01T22:55:02.811Z,51.70
2019-03-01T22:57:34.146Z,49.47
2019-03-01T23:00:03.590Z,51.37
2019-03-01T23:02:35.471Z,48.03
2019-03-01T23:05:25.726Z,47.83
2019-03-01T23:07:56.874Z,47.33
2019-03-01T23:10:26.530Z,47.70
2019-03-01T23:12:56.280Z,43.03
2019-03-01T23:15:25.780Z,41.87
2019-03-01T23:17:55.548Z,41.73
2019-03-01T23:20:26.670Z,41.43
2019-03-01T23:22:56.188Z,41.40
2019-03-01T23:25:25.623Z,42.37
2019-03-01T23:27:55.073Z,42.20
2019-03-01T23:30:25.826Z,43.43
2019-03-01T23:32:55.989Z,44.43
2019-03-01T23:35:25.608Z,43.57
2019-03-01T23:37:54.987Z,44.03
2019-03-01T23:40:25.608Z,46.37
2019-03-01T23:42:57.133Z,42.33
2019-03-01T23:45:26.728Z,43.37
2019-03-01T23:47:56.238Z,44.23
2019-03-01T23:50:25.778Z,45.27
2019-03-01T23:52:58.707Z,46.23
2019-03-01T23:55:28.153Z,49.30
2019-03-01T23:58:05.730Z,49.13
